createdAt,value
2018-10-05T00:02:08.701Z,84.59
2018-10-05T00:04:36.025Z,84.15
2018-10-05T00:07:03.416Z,84.39
2018-10-05T00:09:31.396Z,83.85
2018-10-05T00:11:58.927Z,83.97
2018-10-05T00:14:26.265Z,84.46
2018-10-05T00:16:54.116Z,84.09
2018-10-05T00:22:11.627Z,83.31
2018-10-05T00:24:39.081Z,83.10
2018-10-05T00:27:06.450Z,82.68
2018-10-05T00:29:33.829Z,83.17
2018-10-05T00:32:01.900Z,82.91
2018-10-05T00:34:30.310Z,83.57
2018-10-05T00:36:57.644Z,83.83
2018-10-05T00:39:24.912Z,83.52
2018-10-05T00:41:52.299Z,83.46
2018-10-05T00:44:19.610Z,83.46
2018-10-05T00:46:46.958Z,83.30
2018-10-05T00:49:14.201Z,83.16
2018-10-05T00:51:41.564Z,83.35
2018-10-05T00:54:09.141Z,83.56
2018-10-05T00:56:36.431Z,83.64
2018-10-05T00:59:03.720Z,83.38
2018-10-05T01:01:31.036Z,83.77
2018-10-05T01:03:58.368Z,83.87
2018-10-05T01:06:25.705Z,84.04
2018-10-05T01:08:52.981Z,83.57
2018-10-05T01:11:20.559Z,83.51
2018-10-05T01:13:47.903Z,83.53
2018-10-05T01:16:16.265Z,83.07
2018-10-05T01:18:43.645Z,82.94
2018-10-05T01:21:11.042Z,83.15
2018-10-05T01:23:39.212Z,83.19
2018-10-05T01:26:07.280Z,83.67
2018-10-05T01:28:34.664Z,83.69
2018-10-05T01:31:02.041Z,84.03
2018-10-05T01:33:29.492Z,83.98
2018-10-05T01:35:56.869Z,84.23
2018-10-05T01:38:24.853Z,84.04
2018-10-05T01:40:53.312Z,84.88
2018-10-05T01:43:20.700Z,84.01
2018-10-05T01:45:48.125Z,83.87
2018-10-05T01:48:15.724Z,83.17
2018-10-05T01:50:43.713Z,83.75
2018-10-05T01:53:11.049Z,83.79
2018-10-05T01:55:38.423Z,83.69
2018-10-05T01:58:06.373Z,83.71
2018-10-05T02:00:33.728Z,84.18
2018-10-05T02:03:01.733Z,84.66
2018-10-05T02:05:29.744Z,84.64
2018-10-05T02:07:57.159Z,85.24
2018-10-05T02:10:25.572Z,85.34
2018-10-05T02:12:52.882Z,85.33
2018-10-05T02:15:20.366Z,85.02
2018-10-05T02:17:47.678Z,85.53
2018-10-05T02:20:15.040Z,85.45
2018-10-05T02:22:42.562Z,85.66
2018-10-05T02:25:09.956Z,85.48
2018-10-05T02:27:37.332Z,85.53
2018-10-05T02:30:05.320Z,84.82
2018-10-05T02:32:32.612Z,84.90
2018-10-05T02:34:59.902Z,84.85
2018-10-05T02:37:27.366Z,85.22
2018-10-05T02:39:54.949Z,85.53
2018-10-05T02:42:22.298Z,85.21
2018-10-05T02:44:50.323Z,85.43
2018-10-05T02:47:17.622Z,85.21
2018-10-05T02:49:44.911Z,85.54
2018-10-05T02:52:12.197Z,86.06
2018-10-05T02:54:39.528Z,85.87
2018-10-05T02:57:06.816Z,86.19
2018-10-05T02:59:34.153Z,85.59
2018-10-05T03:02:33.530Z,85.84
2018-10-05T03:05:00.948Z,85.90
2018-10-05T03:07:29.348Z,86.07
2018-10-05T03:09:57.274Z,85.91
2018-10-05T03:12:24.610Z,85.85
2018-10-05T03:14:51.938Z,85.86
2018-10-05T03:17:19.259Z,86.66
2018-10-05T03:19:47.874Z,87.78
2018-10-05T03:22:16.399Z,87.36
2018-10-05T03:24:45.147Z,86.98
2018-10-05T03:27:12.468Z,87.23
2018-10-05T03:29:39.965Z,87.28
2018-10-05T03:32:07.349Z,87.14
2018-10-05T03:34:34.791Z,87.33
2018-10-05T03:37:02.695Z,87.03
2018-10-05T03:39:29.993Z,86.55
2018-10-05T03:41:57.361Z,86.84
2018-10-05T03:44:24.682Z,86.65
2018-10-05T03:46:52.077Z,87.42
2018-10-05T03:49:19.454Z,86.54
2018-10-05T03:51:46.775Z,86.96
2018-10-05T03:54:25.299Z,87.28
2018-10-05T03:56:52.990Z,87.27
2018-10-05T03:59:20.298Z,87.11
2018-10-05T04:01:47.617Z,87.82
2018-10-05T04:04:14.996Z,88.07
2018-10-05T04:06:42.332Z,87.65
2018-10-05T04:09:11.091Z,87.45
2018-10-05T04:11:38.392Z,88.34
2018-10-05T04:14:05.747Z,88.79
2018-10-05T04:16:33.042Z,88.73
2018-10-05T04:19:00.653Z,89.90
2018-10-05T04:21:27.964Z,90.51
2018-10-05T04:23:55.326Z,90.45
2018-10-05T04:26:22.641Z,90.33
2018-10-05T04:28:49.960Z,90.58
2018-10-05T04:31:17.618Z,90.77
2018-10-05T04:33:44.923Z,89.98
2018-10-05T04:36:12.484Z,89.64
2018-10-05T04:38:39.871Z,89.72
2018-10-05T04:41:07.192Z,90.11
2018-10-05T04:43:34.499Z,90.27
2018-10-05T04:46:01.831Z,90.76
2018-10-05T04:48:29.153Z,90.48
2018-10-05T04:50:56.448Z,90.40
2018-10-05T04:53:23.806Z,90.33
2018-10-05T04:55:51.113Z,90.04
2018-10-05T04:58:18.429Z,89.72
2018-10-05T05:00:45.798Z,89.43
2018-10-05T05:03:13.124Z,89.24
2018-10-05T05:05:42.286Z,88.80
2018-10-05T05:08:09.700Z,88.60
2018-10-05T05:10:37.102Z,88.76
2018-10-05T05:13:04.524Z,88.77
2018-10-05T05:15:32.938Z,88.92
2018-10-05T05:18:01.134Z,88.80
2018-10-05T05:20:28.603Z,88.35
2018-10-05T05:22:57.095Z,88.83
2018-10-05T05:25:24.614Z,88.86
2018-10-05T05:27:52.983Z,88.40
2018-10-05T05:30:20.548Z,87.99
2018-10-05T05:32:48.120Z,88.15
2018-10-05T05:35:16.189Z,88.17
2018-10-05T05:37:45.706Z,87.95
2018-10-05T05:40:22.879Z,88.18
2018-10-05T05:42:55.180Z,88.03
2018-10-05T05:48:45.595Z,87.13
2018-10-05T05:51:13.932Z,87.68
2018-10-05T05:53:42.793Z,87.88
2018-10-05T05:56:11.327Z,87.79
2018-10-05T05:58:38.810Z,87.42
2018-10-05T06:01:07.977Z,88.16
2018-10-05T06:03:38.510Z,88.43
2018-10-05T06:06:07.493Z,88.79
2018-10-05T06:08:36.630Z,89.31
2018-10-05T06:11:04.918Z,89.97
2018-10-05T06:13:32.686Z,89.40
2018-10-05T06:16:00.460Z,88.51
2018-10-05T06:23:28.119Z,86.66
2018-10-05T06:25:56.856Z,87.15
2018-10-05T06:28:27.796Z,87.08
2018-10-05T06:30:56.772Z,87.62
2018-10-05T06:33:24.298Z,87.29
2018-10-05T06:35:51.933Z,87.16
2018-10-05T06:38:29.471Z,87.29
2018-10-05T06:40:59.444Z,86.95
2018-10-05T06:43:30.891Z,86.33
2018-10-05T06:46:13.889Z,86.21
2018-10-05T06:48:48.491Z,86.33
2018-10-05T06:51:43.339Z,86.66
2018-10-05T06:54:12.242Z,86.32
2018-10-05T06:56:41.059Z,85.08
2018-10-05T06:59:09.091Z,84.57
2018-10-05T07:01:39.678Z,82.54
2018-10-05T07:04:10.139Z,80.92
2018-10-05T07:06:38.001Z,78.55
2018-10-05T07:09:08.274Z,78.17
2018-10-05T07:11:39.216Z,76.14
2018-10-05T07:14:12.337Z,75.53
2018-10-05T07:16:42.337Z,74.84
2018-10-05T07:19:15.897Z,72.88
2018-10-05T07:21:46.932Z,70.81
2018-10-05T07:24:15.547Z,71.18
2018-10-05T07:26:44.402Z,69.97
2018-10-05T07:29:14.077Z,68.14
2018-10-05T07:31:43.615Z,67.14
2018-10-05T07:34:13.196Z,65.56
2018-10-05T07:36:43.188Z,65.02
2018-10-05T07:39:13.636Z,63.45
2018-10-05T07:41:46.989Z,62.29
2018-10-05T07:44:21.007Z,62.86
2018-10-05T07:47:03.046Z,61.56
2018-10-05T07:49:46.047Z,59.72
2018-10-05T07:52:14.581Z,58.77
2018-10-05T07:54:46.958Z,58.91
2018-10-05T07:57:15.114Z,57.24
2018-10-05T07:59:44.621Z,55.67
2018-10-05T08:02:12.934Z,55.62
2018-10-05T08:04:42.645Z,54.69
2018-10-05T08:07:12.018Z,54.23
2018-10-05T08:09:41.461Z,54.16
2018-10-05T08:12:09.899Z,54.49
2018-10-05T08:14:41.019Z,53.45
2018-10-05T08:17:10.179Z,53.36
2018-10-05T08:19:38.844Z,52.39
2018-10-05T08:22:07.392Z,52.37
2018-10-05T08:24:34.842Z,50.45
2018-10-05T08:27:04.475Z,49.87
2018-10-05T08:29:32.156Z,49.90
2018-10-05T08:32:00.420Z,49.83
2018-10-05T08:34:28.714Z,49.50
2018-10-05T08:36:58.174Z,49.34
2018-10-05T08:39:25.718Z,49.64
2018-10-05T08:41:53.270Z,48.90
2018-10-05T08:44:20.674Z,48.77
2018-10-05T08:46:48.397Z,48.16
2018-10-05T08:49:18.980Z,47.69
2018-10-05T08:51:47.443Z,47.37
2018-10-05T08:54:14.787Z,47.60
2018-10-05T08:56:44.440Z,47.15
2018-10-05T08:59:20.384Z,45.94
2018-10-05T09:01:49.762Z,46.77
2018-10-05T09:04:34.131Z,46.17
2018-10-05T09:07:01.973Z,45.73
2018-10-05T09:09:29.682Z,44.40
2018-10-05T09:12:10.813Z,44.38
2018-10-05T09:14:40.259Z,45.99
2018-10-05T09:17:08.559Z,43.66
2018-10-05T09:19:36.595Z,44.21
2018-10-05T09:22:04.131Z,43.77
2018-10-05T09:24:31.458Z,43.74
2018-10-05T09:26:58.876Z,43.65
2018-10-05T09:29:26.292Z,44.09
2018-10-05T09:31:53.586Z,44.93
2018-10-05T09:34:21.208Z,44.29
2018-10-05T09:36:48.649Z,44.27
2018-10-05T09:39:16.419Z,44.58
2018-10-05T09:41:44.377Z,43.60
2018-10-05T09:44:11.805Z,44.51
2018-10-05T09:46:39.626Z,43.46
2018-10-05T09:49:07.115Z,43.56
2018-10-05T09:51:35.153Z,43.40
2018-10-05T09:54:02.759Z,44.63
2018-10-05T09:56:30.241Z,43.58
2018-10-05T09:58:57.652Z,43.32
2018-10-05T10:01:30.943Z,41.98
2018-10-05T10:03:58.445Z,42.73
2018-10-05T10:06:26.568Z,42.16
2018-10-05T10:08:53.993Z,42.02
2018-10-05T10:11:21.485Z,42.04
2018-10-05T10:13:49.135Z,41.75
2018-10-05T10:16:16.566Z,42.02
2018-10-05T10:18:44.745Z,40.67
2018-10-05T10:21:13.149Z,40.42
2018-10-05T10:23:40.670Z,41.22
2018-10-05T10:26:08.562Z,41.49
2018-10-05T10:28:36.138Z,40.89
2018-10-05T10:31:03.447Z,39.79
2018-10-05T10:33:30.883Z,40.49
2018-10-05T10:35:58.375Z,40.07
2018-10-05T10:38:25.881Z,39.86
2018-10-05T10:40:54.126Z,38.92
2018-10-05T10:43:21.845Z,39.38
2018-10-05T10:45:49.292Z,39.94
2018-10-05T10:48:16.759Z,38.84
2018-10-05T10:50:44.187Z,39.04
2018-10-05T10:53:11.676Z,39.44
2018-10-05T10:55:39.088Z,39.63
2018-10-05T10:58:08.262Z,39.14
2018-10-05T11:00:35.752Z,38.31
2018-10-05T11:03:03.553Z,38.47
2018-10-05T11:05:30.953Z,38.16
2018-10-05T11:07:59.235Z,38.31
2018-10-05T11:10:26.786Z,37.71
2018-10-05T11:12:55.050Z,37.43
2018-10-05T11:15:22.594Z,38.31
2018-10-05T11:17:50.025Z,37.59
2018-10-05T11:20:19.194Z,37.59
2018-10-05T11:22:46.691Z,37.83
2018-10-05T11:25:14.874Z,37.42
2018-10-05T11:27:42.370Z,37.32
2018-10-05T11:30:10.072Z,37.81
2018-10-05T11:32:38.658Z,38.03
2018-10-05T11:35:06.459Z,37.37
2018-10-05T11:37:34.000Z,37.02
2018-10-05T11:40:02.362Z,36.30
2018-10-05T11:42:30.727Z,35.52
2018-10-05T11:44:58.908Z,35.30
2018-10-05T11:47:26.593Z,36.04
2018-10-05T11:49:55.449Z,35.47
2018-10-05T11:52:22.983Z,35.81
2018-10-05T11:54:50.472Z,35.15
2018-10-05T11:57:21.612Z,35.47
2018-10-05T11:59:49.316Z,34.85
2018-10-05T12:02:17.443Z,34.84
2018-10-05T12:04:44.970Z,34.95
2018-10-05T12:07:13.139Z,34.14
2018-10-05T12:09:40.796Z,34.91
2018-10-05T12:12:08.448Z,34.38
2018-10-05T12:14:37.028Z,34.84
2018-10-05T12:17:04.492Z,33.82
2018-10-05T12:19:32.012Z,33.32
2018-10-05T12:22:00.432Z,33.47
2018-10-05T12:24:29.027Z,34.26
2018-10-05T12:26:56.522Z,34.12
2018-10-05T12:29:24.326Z,34.48
2018-10-05T12:31:52.465Z,33.69
2018-10-05T12:34:20.111Z,32.67
2018-10-05T12:36:48.722Z,33.55
2018-10-05T12:39:17.424Z,33.57
2018-10-05T12:41:44.969Z,33.46
2018-10-05T12:44:12.491Z,34.14
2018-10-05T12:46:40.526Z,33.88
2018-10-05T12:49:07.930Z,33.88
2018-10-05T12:51:35.357Z,34.08
2018-10-05T12:54:02.957Z,33.77
2018-10-05T12:56:30.497Z,32.63
2018-10-05T12:58:58.093Z,32.80
2018-10-05T13:01:26.276Z,32.89
2018-10-05T13:03:53.839Z,33.51
2018-10-05T13:06:21.297Z,33.28
2018-10-05T13:08:48.877Z,34.00
2018-10-05T13:11:16.418Z,34.06
2018-10-05T13:13:43.958Z,33.40
2018-10-05T13:16:11.551Z,34.06
2018-10-05T13:18:39.045Z,34.05
2018-10-05T13:21:06.617Z,33.94
2018-10-05T13:23:34.123Z,34.27
2018-10-05T13:26:01.640Z,34.64
2018-10-05T13:28:29.152Z,34.27
2018-10-05T13:30:56.645Z,33.44
2018-10-05T13:33:24.127Z,32.35
2018-10-05T13:35:51.674Z,33.04
2018-10-05T13:38:19.221Z,32.65
2018-10-05T13:40:46.814Z,33.25
2018-10-05T13:43:15.721Z,32.28
2018-10-05T13:45:43.318Z,32.51
2018-10-05T13:48:10.895Z,32.07
2018-10-05T13:50:39.744Z,32.03
2018-10-05T13:53:07.273Z,31.98
2018-10-05T13:55:34.746Z,33.64
2018-10-05T13:58:02.412Z,32.93
2018-10-05T14:00:30.005Z,32.92
2018-10-05T14:02:58.013Z,31.94
2018-10-05T14:05:25.633Z,31.54
2018-10-05T14:07:54.112Z,33.57
2018-10-05T14:10:22.274Z,32.12
2018-10-05T14:12:49.694Z,30.53
2018-10-05T14:15:17.360Z,30.75
2018-10-05T14:17:44.799Z,31.31
2018-10-05T14:20:12.487Z,31.58
2018-10-05T14:22:40.939Z,31.92
2018-10-05T14:25:08.422Z,30.45
2018-10-05T14:27:36.763Z,29.35
2018-10-05T14:30:04.327Z,31.32
2018-10-05T14:32:31.796Z,30.56
2018-10-05T14:34:59.304Z,29.77
2018-10-05T14:37:26.770Z,29.79
2018-10-05T14:42:21.788Z,31.25
2018-10-05T14:44:51.324Z,30.64
2018-10-05T14:47:18.863Z,31.50
2018-10-05T14:49:46.400Z,31.59
2018-10-05T14:52:18.425Z,31.50
2018-10-05T14:54:45.962Z,32.08
2018-10-05T14:57:13.585Z,31.81
2018-10-05T14:59:42.597Z,32.27
2018-10-05T15:02:11.343Z,32.71
2018-10-05T15:04:38.796Z,32.67
2018-10-05T15:07:06.652Z,33.06
2018-10-05T15:09:34.731Z,35.74
2018-10-05T15:12:02.239Z,37.48
2018-10-05T15:14:29.792Z,37.83
2018-10-05T15:16:58.036Z,35.16
2018-10-05T15:19:26.257Z,34.15
2018-10-05T15:21:54.593Z,34.13
2018-10-05T15:24:22.061Z,33.65
2018-10-05T15:26:49.619Z,33.52
2018-10-05T15:29:17.970Z,35.05
2018-10-05T15:31:47.760Z,36.90
2018-10-05T15:34:15.925Z,38.49
2018-10-05T15:36:49.398Z,39.51
2018-10-05T15:39:18.334Z,39.92
2018-10-05T15:41:47.838Z,39.47
2018-10-05T15:44:15.558Z,39.75
2018-10-05T15:47:02.576Z,39.82
2018-10-05T15:49:31.989Z,40.80
2018-10-05T15:51:59.956Z,41.53
2018-10-05T15:54:27.608Z,41.51
2018-10-05T15:56:55.370Z,42.69
2018-10-05T15:59:23.467Z,43.27
2018-10-05T16:01:51.798Z,45.41
2018-10-05T16:04:20.191Z,47.56
2018-10-05T16:06:48.802Z,47.71
2018-10-05T16:09:16.177Z,48.47
2018-10-05T16:11:43.497Z,48.97
2018-10-05T16:14:10.928Z,49.26
2018-10-05T16:16:38.469Z,50.28
2018-10-05T16:19:06.528Z,50.76
2018-10-05T16:21:34.871Z,51.25
2018-10-05T16:24:05.299Z,51.93
2018-10-05T16:26:32.730Z,51.62
2018-10-05T16:29:00.256Z,52.20
2018-10-05T16:31:28.052Z,52.28
2018-10-05T16:33:55.558Z,52.22
2018-10-05T16:36:23.145Z,51.87
2018-10-05T16:38:50.652Z,51.96
2018-10-05T16:41:18.204Z,52.71
2018-10-05T16:43:45.937Z,53.12
2018-10-05T16:46:13.504Z,54.29
2018-10-05T16:48:41.162Z,54.72
2018-10-05T16:51:08.673Z,55.37
2018-10-05T16:53:36.157Z,56.23
2018-10-05T16:56:03.718Z,57.41
2018-10-05T16:58:31.428Z,57.64
2018-10-05T17:00:59.856Z,56.92
2018-10-05T17:03:27.479Z,54.92
2018-10-05T17:06:00.324Z,54.19
2018-10-05T17:08:29.274Z,53.72
2018-10-05T17:10:56.723Z,53.17
2018-10-05T17:13:24.019Z,52.66
2018-10-05T17:15:51.371Z,52.67
2018-10-05T17:18:18.710Z,53.10
2018-10-05T17:20:46.043Z,52.99
2018-10-05T17:23:13.438Z,53.27
2018-10-05T17:25:40.821Z,53.07
2018-10-05T17:28:08.286Z,53.88
2018-10-05T17:30:35.694Z,53.95
2018-10-05T17:33:03.078Z,54.07
2018-10-05T17:35:30.382Z,54.41
2018-10-05T17:37:58.131Z,54.18
2018-10-05T17:40:26.119Z,54.45
2018-10-05T17:42:53.495Z,54.22
2018-10-05T17:45:20.803Z,53.82
2018-10-05T17:47:48.277Z,52.94
2018-10-05T17:50:15.605Z,54.20
2018-10-05T17:52:43.065Z,55.73
2018-10-05T17:55:10.440Z,56.29
2018-10-05T17:57:37.744Z,56.73
2018-10-05T18:00:05.094Z,56.45
2018-10-05T18:02:32.514Z,56.40
2018-10-05T18:04:59.946Z,55.53
2018-10-05T18:07:27.684Z,55.43
2018-10-05T18:09:55.042Z,54.99
2018-10-05T18:12:23.058Z,56.95
2018-10-05T18:14:50.471Z,57.22
2018-10-05T18:17:18.929Z,57.26
2018-10-05T18:19:51.692Z,56.79
2018-10-05T18:22:20.309Z,57.04
2018-10-05T18:24:47.701Z,56.46
2018-10-05T18:27:15.278Z,56.63
2018-10-05T18:29:44.512Z,55.83
2018-10-05T18:32:12.490Z,55.85
2018-10-05T18:34:39.981Z,56.86
2018-10-05T18:37:07.422Z,56.32
2018-10-05T18:39:34.901Z,56.43
2018-10-05T18:42:03.557Z,56.61
2018-10-05T18:44:31.793Z,57.10
2018-10-05T18:46:59.845Z,57.49
2018-10-05T18:49:27.890Z,58.23
2018-10-05T18:51:55.696Z,58.66
2018-10-05T18:54:23.157Z,58.77
2018-10-05T18:57:01.788Z,58.46
2018-10-05T18:59:31.450Z,58.95
2018-10-05T19:02:00.565Z,58.75
2018-10-05T19:04:29.961Z,59.20
2018-10-05T19:06:59.476Z,59.39
2018-10-05T19:09:28.735Z,59.33
2018-10-05T19:11:57.269Z,60.44
2018-10-05T19:14:24.777Z,60.34
2018-10-05T19:16:52.229Z,60.95
2018-10-05T19:19:19.707Z,61.07
2018-10-05T19:21:49.640Z,60.54
2018-10-05T19:24:17.073Z,60.82
2018-10-05T19:26:44.514Z,60.71
2018-10-05T19:29:11.967Z,60.06
2018-10-05T19:31:39.293Z,60.10
2018-10-05T19:34:06.727Z,60.05
2018-10-05T19:36:36.669Z,60.68
2018-10-05T19:39:05.970Z,60.30
2018-10-05T19:41:33.310Z,60.59
2018-10-05T19:44:00.681Z,59.42
2018-10-05T19:46:28.081Z,59.54
2018-10-05T19:48:55.520Z,58.88
2018-10-05T19:51:22.984Z,57.75
2018-10-05T19:53:50.429Z,56.33
2018-10-05T19:56:17.734Z,55.61
2018-10-05T19:58:45.173Z,54.35
2018-10-05T20:01:13.464Z,53.78
2018-10-05T20:03:40.810Z,53.23
2018-10-05T20:06:08.401Z,52.05
2018-10-05T20:08:36.030Z,51.48
2018-10-05T20:11:03.514Z,50.51
2018-10-05T20:13:31.045Z,50.07
2018-10-05T20:15:58.408Z,49.38
2018-10-05T20:18:26.090Z,49.09
2018-10-05T20:20:54.084Z,48.48
2018-10-05T20:23:21.496Z,48.72
2018-10-05T20:25:48.817Z,48.15
2018-10-05T20:28:16.189Z,48.00
2018-10-05T20:30:43.681Z,48.30
2018-10-05T20:33:12.807Z,48.19
2018-10-05T20:35:41.545Z,48.08
2018-10-05T20:38:09.781Z,48.36
2018-10-05T20:40:38.638Z,48.73
2018-10-05T20:43:06.101Z,48.48
2018-10-05T20:45:33.465Z,48.66
2018-10-05T20:48:00.938Z,48.91
2018-10-05T20:50:28.280Z,49.01
2018-10-05T20:52:55.626Z,49.79
2018-10-05T20:55:22.938Z,49.29
2018-10-05T20:57:50.274Z,49.69
2018-10-05T21:00:17.699Z,50.18
2018-10-05T21:02:45.726Z,49.44
2018-10-05T21:05:13.214Z,49.81
2018-10-05T21:07:41.241Z,50.00
2018-10-05T21:10:08.575Z,50.05
2018-10-05T21:12:36.941Z,50.50
2018-10-05T21:15:04.370Z,50.51
2018-10-05T21:17:31.693Z,50.29
2018-10-05T21:19:59.147Z,51.27
2018-10-05T21:22:27.236Z,51.89
2018-10-05T21:24:54.647Z,52.41
2018-10-05T21:27:22.094Z,52.78
2018-10-05T21:29:49.474Z,53.17
2018-10-05T21:32:16.870Z,54.04
2018-10-05T21:34:44.230Z,54.74
2018-10-05T21:37:11.592Z,55.27
2018-10-05T21:39:39.743Z,56.73
2018-10-05T21:42:07.141Z,56.32
2018-10-05T21:44:34.521Z,56.77
2018-10-05T21:47:01.814Z,57.90
2018-10-05T21:49:29.104Z,58.33
2018-10-05T21:51:56.402Z,58.80
2018-10-05T21:54:23.688Z,59.49
2018-10-05T21:56:50.966Z,60.29
2018-10-05T21:59:18.278Z,60.84
2018-10-05T22:01:45.650Z,60.95
2018-10-05T22:04:13.005Z,61.44
2018-10-05T22:06:40.308Z,61.67
2018-10-05T22:09:08.917Z,62.06
2018-10-05T22:11:36.485Z,61.82
2018-10-05T22:14:03.801Z,61.50
2018-10-05T22:16:31.241Z,61.46
2018-10-05T22:18:59.218Z,61.46
2018-10-05T22:21:26.545Z,61.64
2018-10-05T22:23:53.944Z,62.65
2018-10-05T22:26:21.903Z,62.45
2018-10-05T22:28:49.229Z,62.71
2018-10-05T22:31:16.548Z,62.80
2018-10-05T22:33:50.018Z,62.66
2018-10-05T22:36:17.415Z,62.85
2018-10-05T22:38:45.403Z,62.31
2018-10-05T22:41:12.900Z,61.88
2018-10-05T22:43:41.003Z,61.92
2018-10-05T22:46:09.403Z,61.76
2018-10-05T22:48:36.713Z,61.95
2018-10-05T22:51:04.084Z,61.56
2018-10-05T22:53:31.350Z,61.48
2018-10-05T22:55:58.673Z,62.47
2018-10-05T22:58:26.022Z,62.62
2018-10-05T23:00:54.317Z,63.07
2018-10-05T23:03:21.711Z,62.65
2018-10-05T23:05:49.047Z,62.17
2018-10-05T23:08:16.402Z,61.56
2018-10-05T23:10:46.316Z,62.32
2018-10-05T23:13:13.741Z,62.59
2018-10-05T23:15:41.710Z,62.85
2018-10-05T23:18:09.097Z,63.03
2018-10-05T23:20:37.453Z,63.07
2018-10-05T23:23:04.816Z,62.86
2018-10-05T23:25:36.542Z,62.52
2018-10-05T23:28:04.019Z,62.49
2018-10-05T23:30:31.391Z,62.38
2018-10-05T23:32:58.684Z,62.12
2018-10-05T23:35:26.810Z,62.03
2018-10-05T23:37:54.255Z,62.11
2018-10-05T23:40:22.129Z,61.45
2018-10-05T23:42:49.499Z,62.16
2018-10-05T23:45:17.120Z,62.57
2018-10-05T23:47:44.515Z,63.71
2018-10-05T23:50:11.818Z,63.78
2018-10-05T23:52:41.304Z,64.94
2018-10-05T23:55:08.676Z,65.11
2018-10-05T23:57:37.057Z,65.62
